createdAt,value
2023-02-16T00:00:51.610Z,1.60
2023-02-16T00:03:37.289Z,1.60
2023-02-16T00:06:24.752Z,1.60
2023-02-16T00:09:10.560Z,1.70
2023-02-16T00:11:56.765Z,1.60
2023-02-16T00:14:42.169Z,1.60
2023-02-16T00:17:27.819Z,1.60
2023-02-16T00:20:17.576Z,1.60
2023-02-16T00:23:03.060Z,1.60
2023-02-16T00:25:48.658Z,1.60
2023-02-16T00:28:34.551Z,1.60
2023-02-16T00:31:26.012Z,1.60
2023-02-16T00:34:36.540Z,1.60
2023-02-16T00:37:22.147Z,1.60
2023-02-16T00:40:09.542Z,1.60
2023-02-16T00:42:57.276Z,1.60
2023-02-16T00:45:43.073Z,1.60
2023-02-16T00:48:28.647Z,1.60
2023-02-16T00:51:25.565Z,1.60
2023-02-16T00:54:11.806Z,1.60
2023-02-16T00:56:57.930Z,1.60
2023-02-16T00:59:43.985Z,1.60
2023-02-16T01:02:29.694Z,1.60
2023-02-16T01:05:16.294Z,1.60
2023-02-16T01:08:02.564Z,1.60
2023-02-16T01:10:50.066Z,1.60
2023-02-16T01:13:47.962Z,1.60
2023-02-16T01:16:41.553Z,1.60
2023-02-16T01:19:27.399Z,1.60
2023-02-16T01:22:13.498Z,1.60
2023-02-16T01:24:59.179Z,1.60
2023-02-16T01:27:45.142Z,1.60
2023-02-16T01:30:30.740Z,1.60
2023-02-16T01:33:16.551Z,1.60
2023-02-16T01:36:02.063Z,1.60
2023-02-16T01:38:47.501Z,1.60
2023-02-16T01:41:47.493Z,1.60
2023-02-16T01:44:54.958Z,1.60
2023-02-16T01:48:02.704Z,1.60
2023-02-16T01:51:05.539Z,1.60
2023-02-16T01:54:08.817Z,1.50
2023-02-16T01:57:19.626Z,1.50
2023-02-16T02:00:27.693Z,1.50
2023-02-16T02:03:20.579Z,1.50
2023-02-16T02:06:15.180Z,1.50
2023-02-16T02:09:17.833Z,1.50
2023-02-16T02:12:24.120Z,1.50
2023-02-16T02:15:11.703Z,1.50
2023-02-16T02:17:57.203Z,1.50
2023-02-16T02:21:23.520Z,1.50
2023-02-16T02:25:08.101Z,1.50
2023-02-16T02:28:26.415Z,1.40
2023-02-16T02:31:20.724Z,1.40
2023-02-16T02:34:44.099Z,1.40
2023-02-16T02:37:56.624Z,1.40
2023-02-16T02:41:06.025Z,1.40
2023-02-16T02:44:00.546Z,1.40
2023-02-16T02:46:46.998Z,1.40
2023-02-16T02:49:32.862Z,1.40
2023-02-16T02:52:20.984Z,1.30
2023-02-16T02:55:06.883Z,1.40
2023-02-16T02:57:52.743Z,1.40
2023-02-16T03:00:44.477Z,1.40
2023-02-16T03:03:36.615Z,1.40
2023-02-16T03:06:29.875Z,1.40
2023-02-16T03:09:16.295Z,1.40
2023-02-16T03:12:04.413Z,1.30
2023-02-16T03:15:00.026Z,1.30
2023-02-16T03:17:46.744Z,1.20
2023-02-16T03:20:32.660Z,1.20
2023-02-16T03:23:18.045Z,1.10
2023-02-16T03:26:03.532Z,1.10
2023-02-16T03:28:51.327Z,1.20
2023-02-16T03:31:38.812Z,1.20
2023-02-16T03:34:25.588Z,1.10
2023-02-16T03:37:11.657Z,1.10
2023-02-16T03:39:57.352Z,1.10
2023-02-16T03:42:52.460Z,1.10
2023-02-16T03:45:42.597Z,1.10
2023-02-16T03:48:28.135Z,1.10
2023-02-16T03:51:13.892Z,1.10
2023-02-16T03:54:00.008Z,1.00
2023-02-16T03:56:45.990Z,1.00
2023-02-16T03:59:31.769Z,1.00
2023-02-16T04:02:17.669Z,0.90
2023-02-16T04:05:04.251Z,0.90
2023-02-16T04:07:49.848Z,0.90
2023-02-16T04:10:37.788Z,0.90
2023-02-16T04:13:24.590Z,0.80
2023-02-16T04:16:09.787Z,0.80
2023-02-16T04:18:55.189Z,0.70
2023-02-16T04:21:40.700Z,0.70
2023-02-16T04:24:26.238Z,0.70
2023-02-16T04:27:11.750Z,0.70
2023-02-16T04:29:57.315Z,0.70
2023-02-16T04:32:42.754Z,0.80
2023-02-16T04:35:28.275Z,0.80
2023-02-16T04:38:14.209Z,0.80
2023-02-16T04:40:59.584Z,0.80
2023-02-16T04:43:44.965Z,0.80
2023-02-16T04:46:30.783Z,0.70
2023-02-16T04:49:16.669Z,0.70
2023-02-16T04:52:04.063Z,0.80
2023-02-16T04:54:50.065Z,0.80
2023-02-16T04:57:35.500Z,0.80
2023-02-16T05:00:21.317Z,0.80
2023-02-16T05:03:06.824Z,0.70
2023-02-16T05:05:52.147Z,0.70
2023-02-16T05:08:37.673Z,0.70
2023-02-16T05:11:23.313Z,0.70
2023-02-16T05:14:30.421Z,0.70
2023-02-16T05:17:21.908Z,0.70
2023-02-16T05:20:08.183Z,0.70
2023-02-16T05:22:53.668Z,0.70
2023-02-16T05:25:39.474Z,0.70
2023-02-16T05:28:25.146Z,0.70
2023-02-16T05:31:10.994Z,0.70
2023-02-16T05:33:57.304Z,0.70
2023-02-16T05:36:42.939Z,0.60
2023-02-16T05:39:28.511Z,0.60
2023-02-16T05:42:14.238Z,0.70
2023-02-16T05:44:59.533Z,0.70
2023-02-16T05:47:47.140Z,0.70
2023-02-16T05:50:33.030Z,0.70
2023-02-16T05:53:18.469Z,0.80
2023-02-16T05:56:07.318Z,0.70
2023-02-16T05:58:54.069Z,0.70
2023-02-16T06:01:40.475Z,0.70
2023-02-16T06:04:25.914Z,0.80
2023-02-16T06:07:14.640Z,0.80
2023-02-16T06:10:00.728Z,0.80
2023-02-16T06:12:46.192Z,0.90
2023-02-16T06:15:31.784Z,0.80
2023-02-16T06:18:17.652Z,0.90
2023-02-16T06:21:03.438Z,0.90
2023-02-16T06:23:49.338Z,0.90
2023-02-16T06:26:34.728Z,0.90
2023-02-16T06:29:20.597Z,1.00
2023-02-16T06:32:06.021Z,1.00
2023-02-16T06:34:51.772Z,1.00
2023-02-16T06:37:37.332Z,1.00
2023-02-16T06:40:26.074Z,1.10
2023-02-16T06:43:11.802Z,1.10
2023-02-16T06:45:57.304Z,1.20
2023-02-16T06:48:42.738Z,1.20
2023-02-16T06:51:28.107Z,1.20
2023-02-16T06:54:14.508Z,1.30
2023-02-16T06:57:00.584Z,1.30
2023-02-16T06:59:46.247Z,1.30
2023-02-16T07:02:31.874Z,1.40
2023-02-16T07:05:17.401Z,1.50
2023-02-16T07:08:02.753Z,1.50
2023-02-16T07:10:50.385Z,1.50
2023-02-16T07:13:36.492Z,1.50
2023-02-16T07:16:22.056Z,1.60
2023-02-16T07:19:08.038Z,1.70
2023-02-16T07:21:53.533Z,1.70
2023-02-16T07:24:39.166Z,1.80
2023-02-16T07:27:25.901Z,1.90
2023-02-16T07:30:12.591Z,2.00
2023-02-16T07:32:57.958Z,2.00
2023-02-16T07:35:44.214Z,2.00
2023-02-16T07:38:29.966Z,2.10
2023-02-16T07:41:15.288Z,2.20
2023-02-16T07:44:00.858Z,2.20
2023-02-16T07:46:46.199Z,2.30
2023-02-16T07:49:31.702Z,2.20
2023-02-16T07:52:17.099Z,2.30
2023-02-16T07:55:02.669Z,2.40
2023-02-16T07:57:48.598Z,2.50
2023-02-16T08:00:34.240Z,2.60
2023-02-16T08:03:20.060Z,2.70
2023-02-16T08:06:07.870Z,2.70
2023-02-16T08:08:53.608Z,2.80
2023-02-16T08:11:39.206Z,2.90
2023-02-16T08:14:24.469Z,3.00
2023-02-16T08:17:10.217Z,3.10
2023-02-16T08:19:55.867Z,3.10
2023-02-16T08:22:41.467Z,3.10
2023-02-16T08:25:27.428Z,3.10
2023-02-16T08:28:12.977Z,3.10
2023-02-16T08:31:06.830Z,3.20
2023-02-16T08:33:54.677Z,3.30
2023-02-16T08:36:43.473Z,3.30
2023-02-16T08:39:32.249Z,3.30
2023-02-16T08:42:17.669Z,3.30
2023-02-16T08:45:04.919Z,3.40
2023-02-16T08:47:50.922Z,3.40
2023-02-16T08:50:46.369Z,3.50
2023-02-16T08:53:33.410Z,3.60
2023-02-16T08:56:19.939Z,3.70
2023-02-16T08:59:05.647Z,3.70
2023-02-16T09:01:51.141Z,3.70
2023-02-16T09:04:37.208Z,3.80
2023-02-16T09:07:23.154Z,3.80
2023-02-16T09:10:08.797Z,3.90
2023-02-16T09:12:54.489Z,4.10
2023-02-16T09:15:46.803Z,4.10
2023-02-16T09:18:32.571Z,4.10
2023-02-16T09:21:25.408Z,4.20
2023-02-16T09:24:11.422Z,4.20
2023-02-16T09:26:57.415Z,4.20
2023-02-16T09:29:42.989Z,4.20
2023-02-16T09:32:32.297Z,4.40
2023-02-16T09:35:18.299Z,4.60
2023-02-16T09:38:03.647Z,4.70
2023-02-16T09:40:57.101Z,4.70
2023-02-16T09:43:53.268Z,4.70
2023-02-16T09:46:41.016Z,4.70
2023-02-16T09:49:37.190Z,4.80
2023-02-16T09:52:44.955Z,4.80
2023-02-16T09:56:20.118Z,4.90
2023-02-16T09:59:40.179Z,5.10
2023-02-16T10:02:44.720Z,5.20
2023-02-16T10:05:50.432Z,5.10
2023-02-16T10:08:43.354Z,5.20
2023-02-16T10:11:43.792Z,5.30
2023-02-16T10:14:47.286Z,5.30
2023-02-16T10:17:40.629Z,5.10
2023-02-16T10:20:38.315Z,5.10
2023-02-16T10:23:45.230Z,5.10
2023-02-16T10:27:03.370Z,5.10
2023-02-16T10:29:49.598Z,5.20
2023-02-16T10:33:10.552Z,5.30
2023-02-16T10:36:01.807Z,5.10
2023-02-16T10:38:59.699Z,5.10
2023-02-16T10:42:15.839Z,5.00
2023-02-16T10:45:20.876Z,5.10
2023-02-16T10:48:06.564Z,5.20
2023-02-16T10:51:06.252Z,5.40
2023-02-16T10:54:15.633Z,5.40
2023-02-16T10:57:11.318Z,5.40
2023-02-16T11:00:13.729Z,5.40
2023-02-16T11:03:02.978Z,5.30
2023-02-16T11:05:48.743Z,5.10
2023-02-16T11:08:57.488Z,5.20
2023-02-16T11:11:43.119Z,5.20
2023-02-16T11:14:31.291Z,5.20
2023-02-16T11:17:20.918Z,5.30
2023-02-16T11:20:28.943Z,5.30
2023-02-16T11:23:17.718Z,5.20
2023-02-16T11:26:26.768Z,5.30
2023-02-16T11:29:20.693Z,5.40
2023-02-16T11:32:12.806Z,5.50
2023-02-16T11:37:33.521Z,5.80
2023-02-16T11:40:29.326Z,5.90
2023-02-16T11:43:18.123Z,5.90
2023-02-16T11:46:18.964Z,5.90
2023-02-16T11:49:42.442Z,6.00
2023-02-16T11:52:30.701Z,6.10
2023-02-16T11:55:31.605Z,6.20
2023-02-16T11:58:28.167Z,6.40
2023-02-16T12:01:45.318Z,6.50
2023-02-16T12:04:58.264Z,6.50
2023-02-16T12:08:20.949Z,6.50
2023-02-16T12:11:23.398Z,6.70
2023-02-16T12:15:06.531Z,6.60
2023-02-16T12:18:27.644Z,6.40
2023-02-16T12:21:50.197Z,6.40
2023-02-16T12:25:09.059Z,6.20
2023-02-16T12:31:19.772Z,6.00
2023-02-16T12:34:24.529Z,6.10
2023-02-16T12:37:44.812Z,6.00
2023-02-16T12:41:23.008Z,6.00
2023-02-16T12:44:24.006Z,6.00
2023-02-16T12:47:21.129Z,6.00
2023-02-16T12:50:28.366Z,5.90
2023-02-16T12:53:46.791Z,5.90
2023-02-16T12:56:45.839Z,5.80
2023-02-16T13:00:13.070Z,5.80
2023-02-16T13:03:40.692Z,5.90
2023-02-16T13:06:45.960Z,5.80
2023-02-16T13:10:12.665Z,5.80
2023-02-16T13:13:19.725Z,5.70
2023-02-16T13:16:42.797Z,5.70
2023-02-16T13:19:29.107Z,5.70
2023-02-16T13:22:42.355Z,5.70
2023-02-16T13:25:46.193Z,5.60
2023-02-16T13:28:57.228Z,5.60
2023-02-16T13:32:29.894Z,5.50
2023-02-16T13:35:47.005Z,5.50
2023-02-16T13:39:15.967Z,5.60
2023-02-16T13:42:42.677Z,5.60
2023-02-16T13:45:34.340Z,5.60
2023-02-16T13:51:44.152Z,5.70
2023-02-16T13:54:40.709Z,5.70
2023-02-16T13:57:50.659Z,5.60
2023-02-16T14:00:46.619Z,5.60
2023-02-16T14:03:39.234Z,5.50
2023-02-16T14:06:39.713Z,5.50
2023-02-16T14:09:39.842Z,5.40
2023-02-16T14:12:39.174Z,5.40
2023-02-16T14:15:24.888Z,5.30
2023-02-16T14:19:07.779Z,5.30
2023-02-16T14:21:53.866Z,5.20
2023-02-16T14:24:39.754Z,5.20
2023-02-16T14:27:47.187Z,5.20
2023-02-16T14:30:57.893Z,5.20
2023-02-16T14:34:28.931Z,5.20
2023-02-16T14:37:18.786Z,5.10
2023-02-16T14:40:53.747Z,5.10
2023-02-16T14:43:47.178Z,5.10
2023-02-16T14:46:49.991Z,5.00
2023-02-16T14:50:01.589Z,5.00
2023-02-16T14:53:59.200Z,4.90
2023-02-16T14:57:04.639Z,4.90
2023-02-16T15:00:04.454Z,4.80
2023-02-16T15:02:58.950Z,4.70
2023-02-16T15:06:03.192Z,4.70
2023-02-16T15:09:00.124Z,4.60
2023-02-16T15:11:58.729Z,4.50
2023-02-16T15:14:53.068Z,4.50
2023-02-16T15:17:46.459Z,4.40
2023-02-16T15:20:36.981Z,4.40
2023-02-16T15:23:32.985Z,4.30
2023-02-16T15:26:24.561Z,4.30
2023-02-16T15:29:16.398Z,4.30
2023-02-16T15:32:06.292Z,4.20
2023-02-16T15:34:52.002Z,4.20
2023-02-16T15:37:37.497Z,4.20
2023-02-16T15:40:28.998Z,4.10
2023-02-16T15:43:31.022Z,4.10
2023-02-16T15:46:39.044Z,4.00
2023-02-16T15:49:29.598Z,4.00
2023-02-16T15:52:35.163Z,3.90
2023-02-16T15:55:20.758Z,3.90
2023-02-16T15:58:06.590Z,3.90
2023-02-16T16:00:53.194Z,3.80
2023-02-16T16:03:42.974Z,3.80
2023-02-16T16:06:38.630Z,3.80
2023-02-16T16:09:31.070Z,3.80
2023-02-16T16:12:19.572Z,3.70
2023-02-16T16:15:06.454Z,3.70
2023-02-16T16:17:54.639Z,3.60
2023-02-16T16:20:40.769Z,3.60
2023-02-16T16:23:27.372Z,3.50
2023-02-16T16:26:22.382Z,3.50
2023-02-16T16:29:45.453Z,3.40
2023-02-16T16:32:32.123Z,3.40
2023-02-16T16:35:47.173Z,3.30
2023-02-16T16:38:38.280Z,3.30
2023-02-16T16:41:28.442Z,3.20
2023-02-16T16:44:42.804Z,3.20
2023-02-16T16:47:41.893Z,3.10
2023-02-16T16:50:39.523Z,3.00
2023-02-16T16:53:31.737Z,2.90
2023-02-16T16:56:17.173Z,2.90
2023-02-16T16:59:03.572Z,2.80
2023-02-16T17:01:49.394Z,2.80
2023-02-16T17:04:35.352Z,2.80
2023-02-16T17:07:21.230Z,2.70
2023-02-16T17:10:08.431Z,2.70
2023-02-16T17:12:59.464Z,2.60
2023-02-16T17:16:04.074Z,2.50
2023-02-16T17:18:49.668Z,2.50
2023-02-16T17:21:35.124Z,2.50
2023-02-16T17:24:20.933Z,2.50
2023-02-16T17:27:08.433Z,2.40
2023-02-16T17:29:53.991Z,2.30
2023-02-16T17:32:40.232Z,2.30
2023-02-16T17:35:26.592Z,2.30
2023-02-16T17:38:22.459Z,2.20
2023-02-16T17:41:23.181Z,2.20
2023-02-16T17:44:08.916Z,2.10
2023-02-16T17:46:54.768Z,2.00
2023-02-16T17:49:40.474Z,2.00
2023-02-16T17:52:26.628Z,1.90
2023-02-16T17:55:13.548Z,1.90
2023-02-16T17:57:59.951Z,1.80
2023-02-16T18:00:46.863Z,1.80
2023-02-16T18:03:33.477Z,1.80
2023-02-16T18:06:22.950Z,1.70
2023-02-16T18:09:16.113Z,1.70
2023-02-16T18:12:02.102Z,1.60
2023-02-16T18:14:47.885Z,1.60
2023-02-16T18:17:33.991Z,1.50
2023-02-16T18:20:19.974Z,1.50
2023-02-16T18:23:05.846Z,1.50
2023-02-16T18:25:51.135Z,1.40
2023-02-16T18:28:36.621Z,1.40
2023-02-16T18:31:22.445Z,1.30
2023-02-16T18:34:09.241Z,1.30
2023-02-16T18:36:54.973Z,1.30
2023-02-16T18:39:40.488Z,1.20
2023-02-16T18:42:25.830Z,1.20
2023-02-16T18:45:11.873Z,1.10
2023-02-16T18:47:57.320Z,1.10
2023-02-16T18:50:43.109Z,1.10
2023-02-16T18:53:28.893Z,1.10
2023-02-16T18:56:14.492Z,1.10
2023-02-16T18:59:00.283Z,1.00
2023-02-16T19:01:46.003Z,1.00
2023-02-16T19:04:31.857Z,1.00
2023-02-16T19:07:17.768Z,0.90
2023-02-16T19:10:06.114Z,0.80
2023-02-16T19:12:52.125Z,0.90
2023-02-16T19:15:38.103Z,0.90
2023-02-16T19:18:23.798Z,0.80
2023-02-16T19:21:11.878Z,0.80
2023-02-16T19:23:57.318Z,0.80
2023-02-16T19:26:43.032Z,0.80
2023-02-16T19:29:29.207Z,0.70
2023-02-16T19:32:15.105Z,0.70
2023-02-16T19:35:01.077Z,0.70
2023-02-16T19:37:47.099Z,0.60
2023-02-16T19:40:32.862Z,0.60
2023-02-16T19:43:18.572Z,0.60
2023-02-16T19:46:05.424Z,0.60
2023-02-16T19:48:51.900Z,0.60
2023-02-16T19:51:37.576Z,0.60
2023-02-16T19:54:23.255Z,0.50
2023-02-16T19:57:09.037Z,0.50
2023-02-16T19:59:54.440Z,0.50
2023-02-16T20:02:40.068Z,0.50
2023-02-16T20:05:25.381Z,0.50
2023-02-16T20:08:11.099Z,0.40
2023-02-16T20:10:56.780Z,0.40
2023-02-16T20:13:42.939Z,0.40
2023-02-16T20:16:30.145Z,0.40
2023-02-16T20:19:16.075Z,0.30
2023-02-16T20:22:01.921Z,0.30
2023-02-16T20:24:47.868Z,0.30
2023-02-16T20:27:34.570Z,0.30
2023-02-16T20:30:22.001Z,0.30
2023-02-16T20:33:07.623Z,0.20
2023-02-16T20:35:54.166Z,0.20
2023-02-16T20:38:40.438Z,0.20
2023-02-16T20:41:26.475Z,0.20
2023-02-16T20:44:12.676Z,0.20
2023-02-16T20:46:58.035Z,0.20
2023-02-16T20:49:43.969Z,0.20
2023-02-16T20:52:29.675Z,0.10
2023-02-16T20:55:15.320Z,0.10
2023-02-16T20:58:01.468Z,0.10
2023-02-16T21:00:46.846Z,0.10
2023-02-16T21:03:32.340Z,0.10
2023-02-16T21:06:19.200Z,0.20
2023-02-16T21:09:07.863Z,0.10
2023-02-16T21:11:53.637Z,0.10
2023-02-16T21:14:39.027Z,0.10
2023-02-16T21:17:24.317Z,0.10
2023-02-16T21:20:10.392Z,0.10
2023-02-16T21:22:55.682Z,0.10
2023-02-16T21:25:41.139Z,0.10
2023-02-16T21:28:27.774Z,0.10
2023-02-16T21:31:18.144Z,0.10
2023-02-16T21:34:04.036Z,0.10
2023-02-16T21:36:49.592Z,0.10
2023-02-16T21:39:35.470Z,0.10
2023-02-16T21:42:21.204Z,0.20
2023-02-16T21:45:07.520Z,0.20
2023-02-16T21:47:52.925Z,0.20
2023-02-16T21:50:41.691Z,0.30
2023-02-16T21:53:28.944Z,0.30
2023-02-16T21:56:37.729Z,0.30
2023-02-16T21:59:23.433Z,0.40
2023-02-16T22:02:10.792Z,0.50
2023-02-16T22:04:56.514Z,0.50
2023-02-16T22:07:41.977Z,0.60
2023-02-16T22:10:28.408Z,0.60
2023-02-16T22:13:13.710Z,0.60
2023-02-16T22:15:59.237Z,0.60
2023-02-16T22:18:45.014Z,0.70
2023-02-16T22:21:31.210Z,0.70
2023-02-16T22:24:18.871Z,0.80
2023-02-16T22:27:04.624Z,0.80
2023-02-16T22:29:52.092Z,0.80
2023-02-16T22:32:37.680Z,0.80
2023-02-16T22:35:23.296Z,0.80
2023-02-16T22:38:08.871Z,0.80
2023-02-16T22:40:54.793Z,0.90
2023-02-16T22:43:41.153Z,0.90
2023-02-16T22:46:28.597Z,0.90
2023-02-16T22:49:14.467Z,0.90
2023-02-16T22:51:59.773Z,0.80
2023-02-16T22:54:45.237Z,0.90
2023-02-16T22:57:30.803Z,0.90
2023-02-16T23:00:17.066Z,0.90
2023-02-16T23:03:02.495Z,0.80
2023-02-16T23:05:48.024Z,0.80
2023-02-16T23:08:33.361Z,0.80
2023-02-16T23:11:18.879Z,0.90
2023-02-16T23:14:05.976Z,0.90
2023-02-16T23:16:53.424Z,0.90
2023-02-16T23:19:39.455Z,0.90
2023-02-16T23:22:24.693Z,1.00
2023-02-16T23:25:10.291Z,0.90
2023-02-16T23:27:55.745Z,0.90
2023-02-16T23:30:46.855Z,0.90
2023-02-16T23:33:32.881Z,0.90
2023-02-16T23:36:18.715Z,0.90
2023-02-16T23:39:10.771Z,0.90
2023-02-16T23:41:56.757Z,0.90
2023-02-16T23:44:42.087Z,0.80
2023-02-16T23:47:27.555Z,0.90
2023-02-16T23:50:13.069Z,0.80
2023-02-16T23:52:58.693Z,0.80
2023-02-16T23:55:44.183Z,0.90
2023-02-16T23:58:39.423Z,0.90
